createdAt,value
2022-09-16T01:26:52.052Z,99143.94
2022-09-16T01:29:50.938Z,99139.25
2022-09-16T01:32:23.413Z,99140.02
2022-09-16T01:35:13.139Z,99145.84
2022-09-16T01:38:31.015Z,99147.84
2022-09-16T01:41:10.425Z,99146.20
2022-09-16T01:43:55.823Z,99147.95
2022-09-16T02:23:41.797Z,99169.38
2022-09-16T02:40:22.436Z,99183.70
2022-09-16T02:43:14.554Z,99178.76
2022-09-16T03:20:46.058Z,99203.68
2022-09-16T03:23:37.238Z,99205.29
2022-09-16T03:37:17.806Z,99188.23
2022-09-16T03:54:42.512Z,99213.05
2022-09-16T03:57:12.502Z,99206.42
2022-09-16T03:59:44.030Z,99203.00
2022-09-16T04:02:11.000Z,99210.23
2022-09-16T04:05:06.330Z,99217.82
2022-09-16T04:07:41.639Z,99220.36
2022-09-16T04:10:29.682Z,99216.48
2022-09-16T04:13:01.006Z,99224.53
2022-09-16T04:15:35.845Z,99227.05
2022-09-16T04:18:08.439Z,99230.11
2022-09-16T04:20:39.620Z,99235.46
2022-09-16T04:23:06.939Z,99237.20
2022-09-16T04:25:34.022Z,99240.48
2022-09-16T04:28:01.143Z,99238.86
2022-09-16T04:30:27.809Z,99241.26
2022-09-16T04:32:57.749Z,99237.83
2022-09-16T04:35:25.013Z,99241.21
2022-09-16T04:37:52.411Z,99239.27
2022-09-16T04:40:19.421Z,99233.39
2022-09-16T04:42:49.787Z,99233.90
2022-09-16T04:45:17.143Z,99230.60
2022-09-16T04:47:44.913Z,99228.19
2022-09-16T04:50:11.653Z,99228.44
2022-09-16T04:52:38.709Z,99234.13
2022-09-16T04:55:05.972Z,99233.36
2022-09-16T04:57:36.338Z,99239.80
2022-09-16T05:00:05.438Z,99243.61
2022-09-16T05:02:40.015Z,99238.16
2022-09-16T05:05:17.246Z,99235.69
2022-09-16T05:07:59.383Z,99235.69
2022-09-16T05:11:36.627Z,99240.13
2022-09-16T05:14:40.236Z,99234.30
2022-09-16T05:29:11.337Z,99244.64
2022-09-16T05:31:55.956Z,99246.92
2022-09-16T05:34:38.520Z,99255.84
2022-09-16T05:37:38.129Z,99255.54
2022-09-16T05:40:05.150Z,99257.58
2022-09-16T05:42:32.254Z,99263.06
2022-09-16T05:45:13.782Z,99252.41
2022-09-16T05:47:50.995Z,99254.17
2022-09-16T05:50:21.521Z,99260.52
2022-09-16T05:52:51.872Z,99259.09
2022-09-16T05:55:25.918Z,99257.45
2022-09-16T05:59:00.983Z,99255.78
2022-09-16T06:01:38.611Z,99252.81
2022-09-16T06:04:19.120Z,99257.43
2022-09-16T06:08:37.596Z,99250.21
2022-09-16T06:10:07.341Z,99250.73
2022-09-16T06:13:07.537Z,99260.70
2022-09-16T06:16:05.867Z,99254.13
2022-09-16T06:18:33.533Z,99249.29
2022-09-16T06:21:21.631Z,99245.00
2022-09-16T06:24:14.086Z,99239.05
2022-09-16T06:26:42.999Z,99240.98
2022-09-16T06:29:11.892Z,99238.09
2022-09-16T06:31:42.084Z,99233.21
2022-09-16T06:34:13.586Z,99236.41
2022-09-16T06:36:45.393Z,99235.64
2022-09-16T06:39:23.469Z,99240.68
2022-09-16T06:42:14.321Z,99246.36
2022-09-16T06:44:56.448Z,99249.52
2022-09-16T10:00:31.696Z,99282.86
2022-09-16T10:03:37.272Z,99283.70
2022-09-16T10:06:05.723Z,99283.86
2022-09-16T10:08:58.616Z,99283.76
2022-09-16T10:17:37.118Z,99286.70
2022-09-16T10:20:23.963Z,99289.25
2022-09-16T10:23:41.352Z,99288.84
2022-09-16T10:26:35.412Z,99297.20
2022-09-16T10:29:17.962Z,99305.05
2022-09-16T10:31:46.989Z,99310.13
2022-09-16T11:00:15.374Z,99338.97
2022-09-16T11:03:25.390Z,99344.13
2022-09-16T11:07:27.488Z,99338.41
2022-09-16T11:10:29.834Z,99340.10
2022-09-16T11:16:42.889Z,99332.61
2022-09-16T11:19:28.794Z,99328.44
2022-09-16T11:22:57.969Z,99328.92
2022-09-16T11:29:20.201Z,99333.00
2022-09-16T11:32:07.728Z,99340.89
2022-09-16T11:34:58.368Z,99345.38
2022-09-16T11:37:48.652Z,99349.46
2022-09-16T11:44:36.537Z,99360.63
2022-09-16T11:57:19.953Z,99351.75
2022-09-16T12:04:01.513Z,99346.44
2022-09-16T12:06:42.629Z,99337.30
2022-09-16T12:09:20.116Z,99332.30
2022-09-16T12:12:10.032Z,99329.23
2022-09-16T12:15:31.367Z,99325.77
2022-09-16T12:21:34.502Z,99309.50
2022-09-16T12:24:45.500Z,99309.51
2022-09-16T12:27:21.813Z,99313.67
2022-09-16T12:30:38.605Z,99310.02
2022-09-16T12:33:29.896Z,99305.52
2022-09-16T12:36:11.219Z,99297.73
2022-09-16T12:38:40.404Z,99291.56
2022-09-16T12:41:34.768Z,99280.73
2022-09-16T12:44:34.446Z,99275.66
2022-09-16T12:47:35.574Z,99270.27
2022-09-16T12:50:36.160Z,99262.77
2022-09-16T12:53:25.482Z,99255.69
2022-09-16T12:56:24.468Z,99242.91
2022-09-16T12:59:14.452Z,99243.89
2022-09-16T13:02:00.975Z,99238.38
2022-09-16T13:04:43.869Z,99231.14
2022-09-16T13:07:38.916Z,99229.11
2022-09-16T13:10:54.516Z,99225.33
2022-09-16T13:13:40.618Z,99214.72
2022-09-16T13:16:10.502Z,99209.84
2022-09-16T13:18:45.662Z,99207.21
2022-09-16T13:21:39.956Z,99204.88
2022-09-16T13:24:23.294Z,99207.04
2022-09-16T13:26:51.862Z,99212.57
2022-09-16T13:29:37.772Z,99214.54
2022-09-16T13:32:08.088Z,99214.08
2022-09-16T13:35:34.476Z,99213.66
2022-09-16T13:38:34.308Z,99219.58
2022-09-16T13:41:03.905Z,99224.55
2022-09-16T13:43:51.955Z,99227.65
2022-09-16T13:46:32.377Z,99222.48
2022-09-16T13:49:20.315Z,99210.40
2022-09-16T13:51:51.244Z,99201.52
2022-09-16T13:55:06.185Z,99199.13
2022-09-16T13:58:09.520Z,99198.73
2022-09-16T14:01:07.599Z,99195.66
2022-09-16T14:03:49.754Z,99190.77
2022-09-16T14:07:05.553Z,99187.66
2022-09-16T14:10:14.060Z,99180.69
2022-09-16T14:13:11.190Z,99171.50
2022-09-16T14:15:57.634Z,99169.47
2022-09-16T14:18:29.980Z,99177.26
2022-09-16T14:21:07.874Z,99177.00
2022-09-16T14:37:17.915Z,99177.05
2022-09-16T14:39:46.595Z,99180.30
2022-09-16T14:42:27.079Z,99186.43
2022-09-16T14:44:58.866Z,99191.26
2022-09-16T14:47:50.099Z,99197.19
2022-09-16T14:50:32.795Z,99201.91
2022-09-16T14:53:37.512Z,99209.20
2022-09-16T14:56:20.075Z,99214.50
2022-09-16T14:59:06.526Z,99209.58
2022-09-16T15:01:34.731Z,99206.41
2022-09-16T15:04:19.562Z,99207.73
2022-09-16T15:06:58.131Z,99207.93
2022-09-16T15:10:00.312Z,99214.06
2022-09-16T15:12:59.109Z,99208.33
2022-09-16T15:15:35.089Z,99205.26
2022-09-16T15:18:21.998Z,99206.95
2022-09-16T15:21:06.251Z,99214.59
2022-09-16T15:23:39.432Z,99215.52
2022-09-16T15:26:24.316Z,99220.02
2022-09-16T15:29:04.352Z,99224.73
2022-09-16T15:31:41.194Z,99222.52
2022-09-16T15:34:21.268Z,99224.85
2022-09-16T15:36:53.317Z,99221.38
2022-09-16T15:39:30.290Z,99215.79
2022-09-16T15:42:06.257Z,99214.16
2022-09-16T15:44:40.390Z,99206.27
2022-09-16T15:47:19.621Z,99205.38
2022-09-16T15:50:09.375Z,99203.55
2022-09-16T15:52:55.630Z,99198.38
2022-09-16T15:56:07.319Z,99190.52
2022-09-16T15:58:42.131Z,99186.94
2022-09-16T16:01:16.771Z,99185.44
2022-09-16T16:03:44.847Z,99183.36
2022-09-16T16:06:13.605Z,99185.80
2022-09-16T16:08:51.809Z,99188.79
2022-09-16T16:11:34.101Z,99183.94
2022-09-16T16:14:15.348Z,99185.20
2022-09-16T16:17:08.505Z,99183.84
2022-09-16T16:19:34.321Z,99182.04
2022-09-16T16:22:02.589Z,99176.02
2022-09-16T16:24:30.975Z,99178.90
2022-09-16T16:27:00.134Z,99171.91
2022-09-16T16:29:28.265Z,99168.77
2022-09-16T16:31:59.381Z,99161.60
2022-09-16T16:34:27.519Z,99166.84
2022-09-16T16:53:31.296Z,99181.65
2022-09-16T16:59:28.775Z,99186.34
2022-09-16T17:01:58.179Z,99182.18
2022-09-16T17:04:55.051Z,99175.80
2022-09-16T17:10:46.148Z,99187.79
2022-09-16T17:13:14.440Z,99185.14
2022-09-16T17:15:45.238Z,99187.61
2022-09-16T17:18:25.215Z,99187.02
2022-09-16T17:24:25.967Z,99192.08
2022-09-16T17:26:57.418Z,99191.63
2022-09-16T17:29:28.698Z,99189.26
2022-09-16T17:31:57.415Z,99186.05
2022-09-16T17:34:26.614Z,99184.09
2022-09-16T17:36:58.645Z,99185.94
2022-09-16T17:39:27.013Z,99191.95
2022-09-16T17:42:00.087Z,99193.65
2022-09-16T17:44:28.079Z,99185.48
2022-09-16T17:47:22.399Z,99181.25
2022-09-16T17:49:59.510Z,99188.01
2022-09-16T17:52:28.949Z,99189.48
2022-09-16T17:54:58.771Z,99197.83
2022-09-16T17:57:32.960Z,99199.58
2022-09-16T18:00:02.244Z,99203.98
2022-09-16T18:02:48.092Z,99196.16
2022-09-16T18:05:25.599Z,99190.42
2022-09-16T18:08:28.556Z,99188.48
2022-09-16T18:10:59.974Z,99195.39
2022-09-16T18:13:28.381Z,99199.35
2022-09-16T18:16:01.447Z,99206.66
2022-09-16T18:18:36.264Z,99206.56
2022-09-16T18:21:06.729Z,99204.67
2022-09-16T18:23:39.717Z,99199.89
2022-09-16T18:26:12.001Z,99204.84
2022-09-16T18:29:08.222Z,99205.88
2022-09-16T18:31:38.321Z,99202.13
2022-09-16T18:34:08.086Z,99198.70
2022-09-16T18:36:37.735Z,99195.10
2022-09-16T18:39:07.578Z,99189.10
2022-09-16T18:41:38.038Z,99187.06
2022-09-16T18:44:15.883Z,99187.02
2022-09-16T18:46:49.905Z,99187.46
2022-09-16T18:49:22.288Z,99186.92
2022-09-16T18:51:52.424Z,99191.75
2022-09-16T18:54:28.801Z,99192.33
2022-09-16T18:57:00.174Z,99188.84
2022-09-16T18:59:31.474Z,99182.05
2022-09-16T19:02:03.871Z,99179.74
2022-09-16T19:04:37.971Z,99175.69
2022-09-16T19:07:08.680Z,99171.02
2022-09-16T19:09:38.467Z,99164.27
2022-09-16T19:12:10.161Z,99164.18
2022-09-16T19:14:39.557Z,99164.08
2022-09-16T19:17:11.738Z,99159.57
2022-09-16T19:19:43.691Z,99161.06
2022-09-16T19:22:14.834Z,99162.50
2022-09-16T19:24:48.544Z,99157.55
2022-09-16T19:27:17.538Z,99155.41
2022-09-16T19:29:47.902Z,99154.14
2022-09-16T19:32:18.116Z,99155.14
2022-09-16T19:34:46.980Z,99161.34
2022-09-16T19:37:18.465Z,99163.58
2022-09-16T19:39:47.312Z,99158.60
2022-09-16T19:42:16.005Z,99156.93
2022-09-16T19:44:44.835Z,99155.11
2022-09-16T19:47:13.349Z,99153.77
2022-09-16T19:49:43.472Z,99153.81
2022-09-16T19:52:14.715Z,99155.91
2022-09-16T19:54:47.199Z,99154.15
2022-09-16T19:57:27.808Z,99152.69
2022-09-16T19:59:59.730Z,99143.60
2022-09-16T20:02:35.049Z,99130.45
2022-09-16T20:05:13.549Z,99128.43
2022-09-16T20:07:42.804Z,99132.55
2022-09-16T20:10:24.032Z,99142.09
2022-09-16T20:13:16.300Z,99143.66
2022-09-16T20:15:57.193Z,99146.30
2022-09-16T20:18:35.583Z,99147.42
2022-09-16T20:21:08.910Z,99147.58
2022-09-16T20:23:39.413Z,99145.99
2022-09-16T20:26:19.854Z,99139.48
2022-09-16T20:28:59.959Z,99133.21
2022-09-16T20:31:48.556Z,99134.79
2022-09-16T20:35:03.269Z,99135.25
2022-09-16T20:41:08.035Z,99143.45
2022-09-16T20:43:52.439Z,99151.91
2022-09-16T20:46:31.669Z,99145.69
2022-09-16T20:49:03.983Z,99138.09
2022-09-16T20:51:58.019Z,99136.30
2022-09-16T20:54:29.868Z,99137.92
2022-09-16T20:56:58.833Z,99140.71
2022-09-16T20:59:35.886Z,99142.35
2022-09-16T21:06:12.132Z,99157.00
2022-09-16T21:08:41.644Z,99159.33
2022-09-16T21:11:18.848Z,99163.60
2022-09-16T21:13:56.482Z,99174.30
2022-09-16T21:16:26.477Z,99174.61
2022-09-16T21:19:01.844Z,99164.95
2022-09-16T21:21:34.324Z,99165.98
2022-09-16T21:24:03.535Z,99167.91
2022-09-16T21:26:44.625Z,99163.80
2022-09-16T21:29:22.546Z,99167.45
2022-09-16T21:31:56.296Z,99161.42
2022-09-16T21:34:39.531Z,99153.40
2022-09-16T21:37:18.152Z,99155.81
2022-09-16T21:40:00.947Z,99154.61
2022-09-16T21:42:36.211Z,99159.30
2022-09-16T21:45:39.144Z,99167.71
2022-09-16T21:48:58.465Z,99170.86
2022-09-16T21:55:12.081Z,99182.42
2022-09-16T21:57:47.924Z,99182.11
2022-09-16T22:00:21.139Z,99177.40
2022-09-16T22:03:01.105Z,99178.56
2022-09-16T22:05:48.669Z,99174.19
2022-09-16T22:08:21.115Z,99169.16
2022-09-16T22:10:56.068Z,99159.56
2022-09-16T22:13:34.994Z,99154.23
2022-09-16T22:16:07.034Z,99156.50
2022-09-16T22:18:37.672Z,99155.61
2022-09-16T22:21:09.039Z,99157.30
2022-09-16T22:23:43.568Z,99153.96
2022-09-16T22:26:18.863Z,99147.92
2022-09-16T22:28:47.920Z,99139.39
2022-09-16T22:31:25.892Z,99141.57
2022-09-16T22:33:55.578Z,99137.80
2022-09-16T22:36:28.088Z,99131.61
2022-09-16T22:39:00.929Z,99124.34
2022-09-16T22:41:33.979Z,99122.31
2022-09-16T22:44:09.310Z,99122.01
2022-09-16T22:46:46.578Z,99119.11
2022-09-16T22:49:29.217Z,99117.45
2022-09-16T22:52:02.602Z,99113.80
2022-09-16T22:54:39.007Z,99118.45
2022-09-16T22:57:23.107Z,99123.59
2022-09-16T22:59:57.851Z,99125.89
2022-09-16T23:02:39.342Z,99124.00
2022-09-16T23:05:31.472Z,99123.91
2022-09-16T23:08:27.379Z,99128.15
2022-09-16T23:11:02.925Z,99132.41
2022-09-16T23:13:36.177Z,99129.36
2022-09-16T23:19:08.673Z,99118.68
2022-09-16T23:21:38.560Z,99116.58
2022-09-16T23:24:08.871Z,99117.38
2022-09-16T23:26:47.394Z,99125.03
2022-09-16T23:29:34.001Z,99128.43
2022-09-16T23:32:33.989Z,99118.38
2022-09-16T23:35:11.136Z,99114.84
2022-09-16T23:37:40.516Z,99120.17
2022-09-16T23:40:12.592Z,99127.41
2022-09-16T23:42:42.890Z,99131.88
2022-09-16T23:45:11.165Z,99134.16
2022-09-16T23:47:39.291Z,99132.68
2022-09-16T23:50:19.301Z,99128.27
2022-09-16T23:52:56.058Z,99120.19
2022-09-16T23:55:44.728Z,99106.61
2022-09-16T23:58:23.348Z,99109.09
